createdAt,value
2022-10-18T10:29:44.104Z,81.88
2022-10-18T10:31:19.608Z,80.20
2022-10-18T10:32:52.164Z,77.65
2022-10-18T10:34:41.006Z,78.25
2022-10-18T10:36:36.523Z,73.47
2022-10-18T10:38:26.129Z,71.78
2022-10-18T10:40:20.288Z,71.38
2022-10-18T10:42:05.832Z,62.47
2022-10-18T10:43:47.679Z,72.45
2022-10-18T10:45:33.794Z,76.75
2022-10-18T10:47:29.257Z,65.55
2022-10-18T10:49:40.110Z,64.35
2022-10-18T10:51:26.570Z,60.05
2022-10-18T10:53:12.720Z,60.13
2022-10-18T10:55:05.460Z,64.38
2022-10-18T10:56:51.749Z,59.45
2022-10-18T10:58:33.133Z,55.25
2022-10-18T11:00:34.037Z,48.53
2022-10-18T11:02:20.295Z,53.45
2022-10-18T11:05:31.729Z,42.85
2022-10-18T11:07:10.205Z,40.65
2022-10-18T11:08:43.615Z,42.85
2022-10-18T11:10:17.586Z,38.15
2022-10-18T11:12:01.765Z,56.33
2022-10-18T11:15:12.105Z,45.90
2022-10-18T11:17:07.725Z,48.15
2022-10-18T11:18:46.372Z,47.90
2022-10-18T11:20:24.163Z,40.53
2022-10-18T11:22:00.832Z,42.38
2022-10-18T11:23:36.779Z,38.20
2022-10-18T11:25:11.089Z,39.95
2022-10-18T11:26:53.812Z,50.10
2022-10-18T11:28:32.179Z,44.38
2022-10-18T11:30:22.408Z,40.53
2022-10-18T11:32:10.900Z,37.60
2022-10-18T11:34:09.912Z,37.58
2022-10-18T11:35:42.229Z,41.92
2022-10-18T11:37:36.027Z,41.28
2022-10-18T11:39:20.826Z,35.13
2022-10-18T11:40:52.985Z,43.42
2022-10-18T11:42:36.725Z,37.08
2022-10-18T11:44:14.289Z,34.72
2022-10-18T11:45:57.930Z,35.85
2022-10-18T11:47:53.571Z,31.02
2022-10-18T11:49:35.811Z,35.08
2022-10-18T11:51:55.907Z,33.97
2022-10-18T11:53:54.259Z,32.22
2022-10-18T11:56:20.263Z,34.28
2022-10-18T12:01:07.349Z,30.58
2022-10-18T12:03:54.352Z,26.42
2022-10-18T12:06:18.616Z,27.65
2022-10-18T12:08:44.250Z,30.40
2022-10-18T12:13:12.729Z,29.33
2022-10-18T12:15:11.219Z,29.23
2022-10-18T12:17:27.832Z,24.50
2022-10-18T12:19:27.373Z,26.92
2022-10-18T12:21:10.837Z,32.65
2022-10-18T12:22:50.088Z,28.30
2022-10-18T12:24:27.089Z,27.35
2022-10-18T12:26:06.717Z,31.05
2022-10-18T12:27:50.821Z,30.55
2022-10-18T12:29:31.322Z,28.30
2022-10-18T12:31:30.908Z,26.77
2022-10-18T12:33:33.309Z,25.35
2022-10-18T12:35:17.921Z,29.77
2022-10-18T12:37:09.860Z,23.13
2022-10-18T12:41:08.864Z,25.70
2022-10-18T12:42:29.519Z,22.30
2022-10-18T12:42:44.959Z,20.02
2022-10-18T12:44:23.084Z,25.92
2022-10-18T12:48:26.295Z,25.30
2022-10-18T12:50:08.435Z,26.80
2022-10-18T12:52:07.826Z,19.50
2022-10-18T12:53:45.432Z,26.42
2022-10-18T12:55:24.383Z,20.92
2022-10-18T12:57:00.197Z,20.77
2022-10-18T12:58:35.913Z,13.60
2022-10-18T13:00:47.734Z,20.70
2022-10-18T13:02:25.386Z,16.08
2022-10-18T13:04:04.768Z,17.02
2022-10-18T13:05:55.016Z,13.30
2022-10-18T13:08:23.319Z,16.88
2022-10-18T13:10:17.973Z,17.67
2022-10-18T13:12:25.991Z,13.88
2022-10-18T13:14:44.104Z,13.73
2022-10-18T13:17:04.087Z,15.77
2022-10-18T13:19:11.496Z,21.50
2022-10-18T13:21:17.641Z,18.25
2022-10-18T13:23:11.144Z,18.20
2022-10-18T13:25:00.691Z,18.08
2022-10-18T13:26:59.146Z,18.05
2022-10-18T13:28:56.057Z,20.27
2022-10-18T13:31:06.233Z,14.32
2022-10-18T13:33:16.725Z,12.10
2022-10-18T13:35:08.943Z,15.15
2022-10-18T13:37:22.252Z,13.90
2022-10-18T13:41:20.141Z,13.55
2022-10-18T13:44:06.019Z,11.55
2022-10-18T13:46:13.095Z,7.45
2022-10-18T13:47:49.526Z,15.63
2022-10-18T13:49:38.793Z,9.80
2022-10-18T13:51:26.247Z,11.80
2022-10-18T13:53:05.550Z,11.02
2022-10-18T13:55:02.437Z,9.77
2022-10-18T13:56:37.266Z,12.43
2022-10-18T13:58:21.307Z,17.10
2022-10-18T14:00:03.251Z,12.45
2022-10-18T14:01:57.266Z,11.15
2022-10-18T14:03:58.291Z,12.07
2022-10-18T14:05:41.751Z,11.60
2022-10-18T14:07:20.598Z,12.25
2022-10-18T14:09:14.157Z,11.88
2022-10-18T14:11:02.994Z,11.85
2022-10-18T14:12:41.102Z,10.20
2022-10-18T14:14:19.153Z,10.70
2022-10-18T14:15:53.114Z,8.65
2022-10-18T14:17:24.994Z,10.20
2022-10-18T14:18:59.529Z,11.40
2022-10-18T14:20:49.588Z,10.07
2022-10-18T14:22:36.720Z,12.32
2022-10-18T14:24:16.504Z,13.80
2022-10-18T14:25:48.627Z,10.80
2022-10-18T14:27:25.025Z,11.38
2022-10-18T14:29:04.598Z,9.30
2022-10-18T14:30:37.086Z,11.48
2022-10-18T14:32:10.466Z,8.27
2022-10-18T14:33:43.576Z,11.00
2022-10-18T14:35:34.067Z,11.55
2022-10-18T14:37:06.073Z,8.07
2022-10-18T14:38:44.928Z,10.73
2022-10-18T14:40:34.294Z,13.68
2022-10-18T14:42:06.159Z,12.13
2022-10-18T14:43:38.047Z,13.13
2022-10-18T14:45:18.238Z,8.00
2022-10-18T14:47:03.546Z,11.65
2022-10-18T14:48:35.424Z,9.23
2022-10-18T14:50:20.597Z,10.02
2022-10-18T14:51:55.011Z,10.27
2022-10-18T14:53:31.054Z,6.63
2022-10-18T14:55:03.188Z,5.75
2022-10-18T14:56:39.649Z,9.95
2022-10-18T14:58:15.392Z,9.38
2022-10-18T14:59:52.595Z,10.48
2022-10-18T15:01:33.880Z,11.98
2022-10-18T15:03:07.759Z,7.47
2022-10-18T15:04:44.442Z,12.23
2022-10-18T15:06:19.804Z,9.93
2022-10-18T15:07:52.181Z,12.73
2022-10-18T15:09:24.342Z,12.52
2022-10-18T15:10:56.687Z,8.02
2022-10-18T15:12:33.952Z,6.05
2022-10-18T15:14:25.567Z,6.72
2022-10-18T15:15:57.832Z,6.18
2022-10-18T15:17:30.912Z,8.95
2022-10-18T15:19:07.742Z,6.68
2022-10-18T15:20:43.083Z,6.35
2022-10-18T15:22:37.976Z,6.82
2022-10-18T15:24:19.711Z,14.15
2022-10-18T15:25:52.960Z,10.70
2022-10-18T15:27:30.239Z,9.65
2022-10-18T15:29:04.587Z,5.95
2022-10-18T15:30:41.417Z,9.23
2022-10-18T15:32:16.370Z,8.68
2022-10-18T15:33:48.509Z,10.73
2022-10-18T15:35:26.350Z,8.80
2022-10-18T15:37:16.968Z,6.32
2022-10-18T15:38:51.820Z,7.93
2022-10-18T15:40:23.775Z,14.73
2022-10-18T15:41:56.964Z,8.68
2022-10-18T15:45:24.569Z,11.25
2022-10-18T15:47:29.799Z,8.07
2022-10-18T15:49:36.838Z,7.50
2022-10-18T15:51:13.127Z,9.63
2022-10-18T15:52:45.277Z,9.30
2022-10-18T15:54:29.715Z,9.70
2022-10-18T15:56:24.513Z,6.40
2022-10-18T15:58:05.779Z,9.10
2022-10-18T15:59:49.103Z,9.52
2022-10-18T16:01:33.569Z,4.20
2022-10-18T16:03:07.817Z,5.75
2022-10-18T16:04:40.832Z,6.18
2022-10-18T16:06:16.036Z,9.10
2022-10-18T16:07:54.275Z,7.47
2022-10-18T16:09:27.653Z,7.43
2022-10-18T16:11:00.740Z,7.55
2022-10-18T16:12:32.699Z,7.32
2022-10-18T16:14:04.568Z,11.55
2022-10-18T16:15:36.414Z,9.25
2022-10-18T16:17:08.287Z,9.63
2022-10-18T16:18:40.375Z,9.10
2022-10-18T16:20:23.146Z,15.45
2022-10-18T16:21:55.439Z,14.13
2022-10-18T16:23:29.101Z,10.52
2022-10-18T16:25:03.287Z,14.05
2022-10-18T16:26:36.336Z,13.70
2022-10-18T16:28:10.009Z,14.65
2022-10-18T16:29:42.168Z,13.00
2022-10-18T16:31:17.886Z,13.15
2022-10-18T16:32:51.111Z,17.30
2022-10-18T16:34:23.123Z,10.93
2022-10-18T16:35:55.079Z,8.52
2022-10-18T16:37:26.927Z,8.32
2022-10-18T16:39:01.070Z,13.83
2022-10-18T16:40:34.619Z,10.18
2022-10-18T16:42:08.747Z,10.07
2022-10-18T16:43:40.898Z,11.57
2022-10-18T16:45:12.765Z,9.18
2022-10-18T16:46:45.452Z,13.52
2022-10-18T16:48:18.874Z,9.50
2022-10-18T16:49:50.962Z,10.98
2022-10-18T16:51:23.163Z,7.03
2022-10-18T16:52:55.109Z,9.13
2022-10-18T16:54:27.034Z,7.30
2022-10-18T16:56:00.146Z,11.50
2022-10-18T16:57:32.129Z,12.75
2022-10-18T16:59:04.086Z,14.10
2022-10-18T17:00:36.115Z,8.10
2022-10-18T17:02:09.477Z,9.93
2022-10-18T17:03:41.675Z,6.72
2022-10-18T17:05:13.594Z,8.95
2022-10-18T17:06:45.491Z,8.65
2022-10-18T17:08:27.669Z,7.43
2022-10-18T17:09:59.628Z,7.65
2022-10-18T17:11:31.489Z,8.93
2022-10-18T17:13:03.298Z,9.30
2022-10-18T17:14:37.210Z,7.57
2022-10-18T17:18:03.273Z,9.43
2022-10-18T17:19:35.237Z,7.50
2022-10-18T17:21:15.893Z,10.02
2022-10-18T17:22:50.792Z,9.32
2022-10-18T17:24:22.690Z,8.88
2022-10-18T17:26:14.931Z,8.90
2022-10-18T17:27:46.588Z,10.57
2022-10-18T17:29:18.401Z,7.13
2022-10-18T17:30:50.457Z,9.17
2022-10-18T17:32:22.380Z,11.32
2022-10-18T17:33:55.512Z,8.47
2022-10-18T17:35:27.866Z,9.10
2022-10-18T17:36:59.820Z,7.07
2022-10-18T17:38:31.682Z,12.03
2022-10-18T17:40:04.110Z,10.53
2022-10-18T17:41:36.124Z,12.13
2022-10-18T17:43:09.657Z,9.95
2022-10-18T17:44:43.393Z,9.05
2022-10-18T17:46:15.413Z,15.65
2022-10-18T17:47:47.730Z,13.15
2022-10-18T17:49:19.658Z,17.30
2022-10-18T17:50:51.601Z,15.45
2022-10-18T17:52:23.647Z,9.23
2022-10-18T17:53:57.761Z,15.18
2022-10-18T17:55:33.135Z,10.43
2022-10-18T17:57:05.293Z,13.40
2022-10-18T17:58:37.306Z,11.23
2022-10-18T18:00:10.944Z,10.75
2022-10-18T18:03:18.954Z,11.73
2022-10-18T18:04:50.989Z,9.93
2022-10-18T18:06:34.302Z,14.27
2022-10-18T18:09:39.772Z,10.65
2022-10-18T18:11:12.191Z,7.53
2022-10-18T18:12:48.530Z,10.15
2022-10-18T18:14:21.508Z,8.95
2022-10-18T18:15:53.420Z,10.52
2022-10-18T18:17:33.939Z,10.40
2022-10-18T18:19:09.727Z,11.10
2022-10-18T18:20:41.941Z,13.93
2022-10-18T18:22:14.388Z,10.10
2022-10-18T18:23:46.706Z,11.05
2022-10-18T18:25:18.989Z,9.27
2022-10-18T18:26:55.734Z,10.48
2022-10-18T18:28:27.729Z,5.80
2022-10-18T18:29:59.656Z,38.95
2022-10-18T18:31:34.507Z,31.13
2022-10-18T18:33:10.781Z,18.55
2022-10-18T18:34:43.001Z,20.05
2022-10-18T18:36:15.090Z,14.48
2022-10-18T18:37:52.393Z,13.63
2022-10-18T18:39:25.690Z,12.77
2022-10-18T18:41:04.780Z,9.88
2022-10-18T18:42:38.845Z,13.70
2022-10-18T18:44:10.773Z,10.80
2022-10-18T18:45:52.357Z,9.10
2022-10-18T18:47:24.305Z,8.88
2022-10-18T18:48:58.902Z,13.00
2022-10-18T18:50:32.103Z,11.43
2022-10-18T18:52:04.165Z,13.73
2022-10-18T18:53:36.103Z,11.98
2022-10-18T18:55:08.360Z,14.73
2022-10-18T18:56:44.849Z,8.77
2022-10-18T18:58:17.105Z,17.60
2022-10-18T18:59:49.702Z,21.95
2022-10-18T19:01:25.614Z,13.70
2022-10-18T19:02:57.707Z,10.52
2022-10-18T19:04:29.787Z,10.55
2022-10-18T19:06:05.800Z,9.30
2022-10-18T19:07:37.714Z,7.85
2022-10-18T19:09:18.555Z,11.45
2022-10-18T19:10:50.940Z,13.60
2022-10-18T19:12:22.875Z,10.07
2022-10-18T19:13:54.924Z,10.93
2022-10-18T19:15:27.046Z,13.63
2022-10-18T19:17:04.775Z,16.08
2022-10-18T19:18:36.743Z,15.57
2022-10-18T19:20:12.538Z,11.07
2022-10-18T19:21:46.288Z,12.30
2022-10-18T19:23:18.363Z,12.43
2022-10-18T19:24:50.390Z,15.18
2022-10-18T19:26:39.343Z,11.93
2022-10-18T19:28:11.528Z,10.48
2022-10-18T19:29:45.504Z,8.85
2022-10-18T19:31:17.614Z,13.63
2022-10-18T19:32:52.871Z,15.48
2022-10-18T19:34:25.817Z,13.20
2022-10-18T19:36:00.301Z,12.13
2022-10-18T19:37:32.909Z,13.35
2022-10-18T19:39:05.865Z,13.18
2022-10-18T19:40:37.726Z,17.30
2022-10-18T19:42:16.011Z,15.60
2022-10-18T19:43:51.543Z,21.23
2022-10-18T19:45:23.645Z,21.10
2022-10-18T19:46:55.654Z,22.98
2022-10-18T19:48:27.777Z,18.75
2022-10-18T19:50:01.755Z,19.35
2022-10-18T19:51:35.107Z,28.98
2022-10-18T19:53:07.312Z,22.25
2022-10-18T19:54:39.658Z,27.17
2022-10-18T19:56:19.170Z,24.90
2022-10-18T19:57:51.351Z,20.48
2022-10-18T19:59:24.286Z,25.13
2022-10-18T20:00:57.440Z,22.48
2022-10-18T20:02:29.599Z,21.52
2022-10-18T20:04:03.959Z,25.98
2022-10-18T20:05:35.970Z,21.73
2022-10-18T20:07:11.705Z,22.03
2022-10-18T20:08:45.159Z,21.13
2022-10-18T20:10:17.426Z,24.48
2022-10-18T20:11:50.910Z,23.75
2022-10-18T20:13:23.589Z,14.82
2022-10-18T20:14:55.786Z,15.93
2022-10-18T20:16:30.765Z,21.20
2022-10-18T20:18:03.045Z,22.83
2022-10-18T20:19:34.992Z,19.90
2022-10-18T20:21:07.922Z,16.98
2022-10-18T20:22:42.487Z,19.02
2022-10-18T20:24:14.645Z,21.52
2022-10-18T20:26:05.981Z,24.83
2022-10-18T20:27:38.923Z,19.63
2022-10-18T20:29:11.167Z,20.58
2022-10-18T20:30:43.411Z,15.50
2022-10-18T20:32:23.869Z,19.02
2022-10-18T20:34:10.355Z,19.05
2022-10-18T20:37:45.728Z,13.77
2022-10-18T20:39:24.892Z,18.27
2022-10-18T20:41:19.627Z,19.02
2022-10-18T20:47:55.337Z,21.08
2022-10-18T20:49:37.295Z,15.88
2022-10-18T20:51:14.762Z,17.27
2022-10-18T20:52:59.254Z,19.00
2022-10-18T20:54:39.981Z,17.45
2022-10-18T20:56:28.732Z,13.77
2022-10-18T20:58:13.827Z,14.65
2022-10-18T20:59:53.616Z,15.93
2022-10-18T21:01:45.310Z,15.10
2022-10-18T21:03:25.217Z,14.32
2022-10-18T21:05:22.691Z,13.88
2022-10-18T21:07:07.102Z,15.88
2022-10-18T21:08:47.401Z,19.45
2022-10-18T21:10:22.195Z,14.10
2022-10-18T21:14:07.214Z,17.05
2022-10-18T21:15:43.840Z,18.88
2022-10-18T21:17:21.331Z,15.75
2022-10-18T21:19:01.574Z,14.23
2022-10-18T21:21:30.042Z,14.38
2022-10-18T21:24:26.169Z,15.25
2022-10-18T21:26:43.972Z,10.15
2022-10-18T21:28:49.188Z,15.50
2022-10-18T21:32:06.103Z,15.38
2022-10-18T21:33:26.043Z,14.02
2022-10-18T21:35:19.957Z,18.27
2022-10-18T21:37:02.833Z,12.77
2022-10-18T21:38:45.818Z,12.50
2022-10-18T21:40:21.528Z,12.48
2022-10-18T21:42:05.524Z,11.18
